sensor_id;sensor_type;location;lat;lon;timestamp;P1;durP1;ratioP1;P2;durP2;ratioP2
37477;SDS011;23334;54.316;10.182;2024-01-30T00:01:44;18.47;;;9.87;;
37477;SDS011;23334;54.316;10.182;2024-01-30T00:04:09;16.43;;;9.93;;
37477;SDS011;23334;54.316;10.182;2024-01-30T00:06:36;22.97;;;10.00;;
37477;SDS011;23334;54.316;10.182;2024-01-30T00:09:02;17.70;;;9.50;;
37477;SDS011;23334;54.316;10.182;2024-01-30T00:11:27;17.10;;;10.10;;
37477;SDS011;23334;54.316;10.182;2024-01-30T00:13:53;20.00;;;10.83;;
37477;SDS011;23334;54.316;10.182;2024-01-30T00:16:22;23.23;;;11.07;;
37477;SDS011;23334;54.316;10.182;2024-01-30T00:18:49;19.40;;;10.97;;
37477;SDS011;23334;54.316;10.182;2024-01-30T00:21:15;21.53;;;10.90;;
37477;SDS011;23334;54.316;10.182;2024-01-30T00:23:41;25.00;;;11.00;;
37477;SDS011;23334;54.316;10.182;2024-01-30T00:26:06;15.40;;;10.83;;
37477;SDS011;23334;54.316;10.182;2024-01-30T00:28:35;15.97;;;9.73;;
37477;SDS011;23334;54.316;10.182;2024-01-30T00:31:01;14.83;;;9.80;;
37477;SDS011;23334;54.316;10.182;2024-01-30T00:33:26;17.20;;;10.23;;
37477;SDS011;23334;54.316;10.182;2024-01-30T00:35:54;17.67;;;10.63;;
37477;SDS011;23334;54.316;10.182;2024-01-30T00:38:19;16.50;;;9.70;;
37477;SDS011;23334;54.316;10.182;2024-01-30T00:40:45;19.10;;;9.97;;
37477;SDS011;23334;54.316;10.182;2024-01-30T00:43:11;17.10;;;10.07;;
37477;SDS011;23334;54.316;10.182;2024-01-30T00:45:37;15.53;;;10.10;;
37477;SDS011;23334;54.316;10.182;2024-01-30T00:48:03;17.50;;;10.00;;
37477;SDS011;23334;54.316;10.182;2024-01-30T00:50:32;17.30;;;9.90;;
37477;SDS011;23334;54.316;10.182;2024-01-30T00:52:57;18.83;;;10.93;;
37477;SDS011;23334;54.316;10.182;2024-01-30T00:55:23;15.47;;;10.00;;
37477;SDS011;23334;54.316;10.182;2024-01-30T00:57:49;18.27;;;10.50;;
37477;SDS011;23334;54.316;10.182;2024-01-30T01:00:15;27.27;;;9.60;;
37477;SDS011;23334;54.316;10.182;2024-01-30T01:02:42;16.67;;;10.43;;
37477;SDS011;23334;54.316;10.182;2024-01-30T01:05:08;13.47;;;9.23;;
37477;SDS011;23334;54.316;10.182;2024-01-30T01:07:33;18.77;;;11.13;;
37477;SDS011;23334;54.316;10.182;2024-01-30T01:09:59;14.03;;;9.23;;
37477;SDS011;23334;54.316;10.182;2024-01-30T01:12:25;16.30;;;10.33;;
37477;SDS011;23334;54.316;10.182;2024-01-30T01:14:51;15.20;;;9.50;;
37477;SDS011;23334;54.316;10.182;2024-01-30T01:17:18;13.40;;;9.50;;
37477;SDS011;23334;54.316;10.182;2024-01-30T01:19:43;22.97;;;10.40;;
37477;SDS011;23334;54.316;10.182;2024-01-30T01:22:09;15.40;;;10.23;;
37477;SDS011;23334;54.316;10.182;2024-01-30T01:24:37;15.03;;;9.33;;
37477;SDS011;23334;54.316;10.182;2024-01-30T01:27:02;15.30;;;9.17;;
37477;SDS011;23334;54.316;10.182;2024-01-30T01:29:28;15.23;;;9.60;;
37477;SDS011;23334;54.316;10.182;2024-01-30T01:31:54;15.40;;;9.53;;
37477;SDS011;23334;54.316;10.182;2024-01-30T01:34:21;17.20;;;9.37;;
37477;SDS011;23334;54.316;10.182;2024-01-30T01:36:47;16.10;;;9.90;;
37477;SDS011;23334;54.316;10.182;2024-01-30T01:39:13;13.70;;;9.10;;
37477;SDS011;23334;54.316;10.182;2024-01-30T01:41:39;14.17;;;8.97;;
37477;SDS011;23334;54.316;10.182;2024-01-30T01:44:07;13.30;;;9.83;;
37477;SDS011;23334;54.316;10.182;2024-01-30T01:46:33;14.80;;;10.00;;
37477;SDS011;23334;54.316;10.182;2024-01-30T01:49:00;16.80;;;11.33;;
37477;SDS011;23334;54.316;10.182;2024-01-30T01:51:27;17.30;;;11.00;;
37477;SDS011;23334;54.316;10.182;2024-01-30T01:53:55;17.13;;;10.33;;
37477;SDS011;23334;54.316;10.182;2024-01-30T01:56:23;19.10;;;11.27;;
37477;SDS011;23334;54.316;10.182;2024-01-30T01:58:49;14.63;;;10.20;;
37477;SDS011;23334;54.316;10.182;2024-01-30T02:01:16;18.60;;;11.13;;
37477;SDS011;23334;54.316;10.182;2024-01-30T02:03:45;21.17;;;10.90;;
37477;SDS011;23334;54.316;10.182;2024-01-30T02:06:11;23.03;;;11.27;;
37477;SDS011;23334;54.316;10.182;2024-01-30T02:08:39;23.13;;;11.40;;
37477;SDS011;23334;54.316;10.182;2024-01-30T02:11:05;19.40;;;10.70;;
37477;SDS011;23334;54.316;10.182;2024-01-30T02:13:31;13.17;;;9.67;;
37477;SDS011;23334;54.316;10.182;2024-01-30T02:15:59;17.10;;;10.13;;
37477;SDS011;23334;54.316;10.182;2024-01-30T02:18:25;18.93;;;11.10;;
37477;SDS011;23334;54.316;10.182;2024-01-30T02:20:51;18.17;;;10.80;;
37477;SDS011;23334;54.316;10.182;2024-01-30T02:23:20;20.00;;;12.93;;
37477;SDS011;23334;54.316;10.182;2024-01-30T02:25:47;17.77;;;12.20;;
37477;SDS011;23334;54.316;10.182;2024-01-30T02:28:13;16.87;;;10.53;;
37477;SDS011;23334;54.316;10.182;2024-01-30T02:30:39;18.70;;;10.93;;
37477;SDS011;23334;54.316;10.182;2024-01-30T02:33:05;17.57;;;10.47;;
37477;SDS011;23334;54.316;10.182;2024-01-30T02:35:32;19.77;;;10.90;;
37477;SDS011;23334;54.316;10.182;2024-01-30T02:37:58;20.27;;;11.60;;
37477;SDS011;23334;54.316;10.182;2024-01-30T02:40:24;19.47;;;11.03;;
37477;SDS011;23334;54.316;10.182;2024-01-30T02:42:50;17.07;;;11.03;;
37477;SDS011;23334;54.316;10.182;2024-01-30T02:45:17;16.90;;;11.17;;
37477;SDS011;23334;54.316;10.182;2024-01-30T02:47:43;20.70;;;11.13;;
37477;SDS011;23334;54.316;10.182;2024-01-30T02:50:08;25.03;;;11.07;;
37477;SDS011;23334;54.316;10.182;2024-01-30T02:52:34;16.63;;;10.60;;
37477;SDS011;23334;54.316;10.182;2024-01-30T02:55:00;18.30;;;11.57;;
37477;SDS011;23334;54.316;10.182;2024-01-30T02:57:28;14.83;;;9.47;;
37477;SDS011;23334;54.316;10.182;2024-01-30T02:59:55;15.17;;;10.37;;
37477;SDS011;23334;54.316;10.182;2024-01-30T03:02:20;20.83;;;10.77;;
37477;SDS011;23334;54.316;10.182;2024-01-30T03:04:46;14.90;;;9.90;;
37477;SDS011;23334;54.316;10.182;2024-01-30T03:07:12;17.13;;;10.70;;
37477;SDS011;23334;54.316;10.182;2024-01-30T03:09:38;16.87;;;11.43;;
37477;SDS011;23334;54.316;10.182;2024-01-30T03:12:04;18.50;;;10.60;;
37477;SDS011;23334;54.316;10.182;2024-01-30T03:14:31;18.60;;;10.70;;
37477;SDS011;23334;54.316;10.182;2024-01-30T03:16:57;17.30;;;10.40;;
37477;SDS011;23334;54.316;10.182;2024-01-30T03:19:22;18.13;;;10.10;;
37477;SDS011;23334;54.316;10.182;2024-01-30T03:21:48;21.57;;;9.63;;
37477;SDS011;23334;54.316;10.182;2024-01-30T03:24:14;21.63;;;11.07;;
37477;SDS011;23334;54.316;10.182;2024-01-30T03:26:39;12.80;;;10.00;;
37477;SDS011;23334;54.316;10.182;2024-01-30T03:29:05;12.57;;;9.20;;
37477;SDS011;23334;54.316;10.182;2024-01-30T03:31:31;13.67;;;9.83;;
37477;SDS011;23334;54.316;10.182;2024-01-30T03:33:57;15.27;;;10.50;;
37477;SDS011;23334;54.316;10.182;2024-01-30T03:36:23;13.10;;;10.50;;
37477;SDS011;23334;54.316;10.182;2024-01-30T03:38:48;13.37;;;10.00;;
37477;SDS011;23334;54.316;10.182;2024-01-30T03:41:14;13.77;;;10.10;;
37477;SDS011;23334;54.316;10.182;2024-01-30T03:43:40;15.27;;;9.60;;
37477;SDS011;23334;54.316;10.182;2024-01-30T03:46:06;13.43;;;10.23;;
37477;SDS011;23334;54.316;10.182;2024-01-30T03:48:32;15.00;;;9.20;;
37477;SDS011;23334;54.316;10.182;2024-01-30T03:50:58;13.00;;;9.47;;
37477;SDS011;23334;54.316;10.182;2024-01-30T03:53:24;12.53;;;10.20;;
37477;SDS011;23334;54.316;10.182;2024-01-30T03:55:50;14.77;;;9.13;;
37477;SDS011;23334;54.316;10.182;2024-01-30T03:58:16;15.10;;;10.03;;
37477;SDS011;23334;54.316;10.182;2024-01-30T04:00:42;19.83;;;10.83;;
37477;SDS011;23334;54.316;10.182;2024-01-30T04:03:09;11.17;;;9.50;;
37477;SDS011;23334;54.316;10.182;2024-01-30T04:05:35;14.67;;;9.50;;
37477;SDS011;23334;54.316;10.182;2024-01-30T04:08:00;13.13;;;8.90;;
37477;SDS011;23334;54.316;10.182;2024-01-30T04:10:26;15.10;;;9.60;;
37477;SDS011;23334;54.316;10.182;2024-01-30T04:12:52;15.57;;;10.07;;
37477;SDS011;23334;54.316;10.182;2024-01-30T04:15:19;16.00;;;10.10;;
37477;SDS011;23334;54.316;10.182;2024-01-30T04:17:44;13.40;;;9.30;;
37477;SDS011;23334;54.316;10.182;2024-01-30T04:20:14;14.70;;;9.70;;
37477;SDS011;23334;54.316;10.182;2024-01-30T04:22:42;15.73;;;8.93;;
37477;SDS011;23334;54.316;10.182;2024-01-30T04:25:08;15.20;;;9.27;;
37477;SDS011;23334;54.316;10.182;2024-01-30T04:27:34;12.00;;;8.87;;
37477;SDS011;23334;54.316;10.182;2024-01-30T04:29:59;17.47;;;9.40;;
37477;SDS011;23334;54.316;10.182;2024-01-30T04:32:25;12.27;;;8.87;;
37477;SDS011;23334;54.316;10.182;2024-01-30T04:34:51;14.10;;;9.10;;
37477;SDS011;23334;54.316;10.182;2024-01-30T04:37:17;15.53;;;8.77;;
37477;SDS011;23334;54.316;10.182;2024-01-30T04:39:44;13.67;;;9.17;;
37477;SDS011;23334;54.316;10.182;2024-01-30T04:42:10;12.40;;;8.83;;
37477;SDS011;23334;54.316;10.182;2024-01-30T04:44:37;12.60;;;8.87;;
37477;SDS011;23334;54.316;10.182;2024-01-30T04:47:03;19.67;;;9.93;;
37477;SDS011;23334;54.316;10.182;2024-01-30T04:49:30;16.10;;;8.77;;
37477;SDS011;23334;54.316;10.182;2024-01-30T04:51:56;14.47;;;9.67;;
37477;SDS011;23334;54.316;10.182;2024-01-30T04:54:22;13.30;;;9.87;;
37477;SDS011;23334;54.316;10.182;2024-01-30T04:56:48;13.17;;;9.50;;
37477;SDS011;23334;54.316;10.182;2024-01-30T04:59:15;11.87;;;8.70;;
37477;SDS011;23334;54.316;10.182;2024-01-30T05:01:41;11.83;;;8.37;;
37477;SDS011;23334;54.316;10.182;2024-01-30T05:04:07;11.93;;;8.73;;
37477;SDS011;23334;54.316;10.182;2024-01-30T05:06:33;14.47;;;9.23;;
37477;SDS011;23334;54.316;10.182;2024-01-30T05:08:59;11.87;;;8.47;;
37477;SDS011;23334;54.316;10.182;2024-01-30T05:11:26;10.67;;;9.03;;
37477;SDS011;23334;54.316;10.182;2024-01-30T05:13:52;11.80;;;8.33;;
37477;SDS011;23334;54.316;10.182;2024-01-30T05:16:18;21.60;;;8.80;;
37477;SDS011;23334;54.316;10.182;2024-01-30T05:18:44;13.60;;;8.40;;
37477;SDS011;23334;54.316;10.182;2024-01-30T05:21:11;10.90;;;7.93;;
37477;SDS011;23334;54.316;10.182;2024-01-30T05:23:37;12.00;;;8.37;;
37477;SDS011;23334;54.316;10.182;2024-01-30T05:26:03;9.93;;;7.87;;
37477;SDS011;23334;54.316;10.182;2024-01-30T05:28:29;10.10;;;8.33;;
37477;SDS011;23334;54.316;10.182;2024-01-30T05:30:56;13.23;;;7.70;;
37477;SDS011;23334;54.316;10.182;2024-01-30T05:33:21;12.60;;;7.93;;
37477;SDS011;23334;54.316;10.182;2024-01-30T05:35:47;12.70;;;8.60;;
37477;SDS011;23334;54.316;10.182;2024-01-30T05:38:13;14.00;;;8.90;;
37477;SDS011;23334;54.316;10.182;2024-01-30T05:40:39;9.93;;;7.80;;
37477;SDS011;23334;54.316;10.182;2024-01-30T05:43:05;11.17;;;7.83;;
37477;SDS011;23334;54.316;10.182;2024-01-30T05:45:30;12.47;;;7.83;;
37477;SDS011;23334;54.316;10.182;2024-01-30T05:47:56;10.47;;;7.50;;
37477;SDS011;23334;54.316;10.182;2024-01-30T05:50:21;8.80;;;7.57;;
37477;SDS011;23334;54.316;10.182;2024-01-30T05:52:48;11.37;;;7.50;;
37477;SDS011;23334;54.316;10.182;2024-01-30T05:55:15;11.90;;;7.97;;
37477;SDS011;23334;54.316;10.182;2024-01-30T05:57:40;10.20;;;7.63;;
37477;SDS011;23334;54.316;10.182;2024-01-30T06:00:07;13.27;;;8.63;;
37477;SDS011;23334;54.316;10.182;2024-01-30T06:02:33;10.63;;;7.87;;
37477;SDS011;23334;54.316;10.182;2024-01-30T06:04:59;9.87;;;8.40;;
37477;SDS011;23334;54.316;10.182;2024-01-30T06:07:25;17.80;;;8.50;;
37477;SDS011;23334;54.316;10.182;2024-01-30T06:09:51;12.17;;;8.73;;
37477;SDS011;23334;54.316;10.182;2024-01-30T06:12:17;10.10;;;7.80;;
37477;SDS011;23334;54.316;10.182;2024-01-30T06:14:43;11.10;;;7.70;;
37477;SDS011;23334;54.316;10.182;2024-01-30T06:17:10;10.43;;;7.43;;
37477;SDS011;23334;54.316;10.182;2024-01-30T06:19:37;12.00;;;7.80;;
37477;SDS011;23334;54.316;10.182;2024-01-30T06:22:04;12.47;;;8.87;;
37477;SDS011;23334;54.316;10.182;2024-01-30T06:24:30;9.23;;;7.53;;
37477;SDS011;23334;54.316;10.182;2024-01-30T06:26:56;10.00;;;7.57;;
37477;SDS011;23334;54.316;10.182;2024-01-30T06:29:22;12.30;;;7.63;;
37477;SDS011;23334;54.316;10.182;2024-01-30T06:31:50;10.03;;;7.67;;
37477;SDS011;23334;54.316;10.182;2024-01-30T06:34:16;14.83;;;7.60;;
37477;SDS011;23334;54.316;10.182;2024-01-30T06:36:41;10.53;;;8.10;;
37477;SDS011;23334;54.316;10.182;2024-01-30T06:39:06;9.90;;;7.13;;
37477;SDS011;23334;54.316;10.182;2024-01-30T06:41:32;11.50;;;8.70;;
37477;SDS011;23334;54.316;10.182;2024-01-30T06:43:58;10.87;;;7.80;;
37477;SDS011;23334;54.316;10.182;2024-01-30T06:46:25;11.33;;;7.60;;
37477;SDS011;23334;54.316;10.182;2024-01-30T06:48:52;11.00;;;8.53;;
37477;SDS011;23334;54.316;10.182;2024-01-30T06:51:18;11.00;;;7.70;;
37477;SDS011;23334;54.316;10.182;2024-01-30T06:53:45;12.83;;;8.50;;
37477;SDS011;23334;54.316;10.182;2024-01-30T06:56:10;12.77;;;8.90;;
37477;SDS011;23334;54.316;10.182;2024-01-30T06:58:36;9.70;;;8.27;;
37477;SDS011;23334;54.316;10.182;2024-01-30T07:01:02;13.07;;;8.57;;
37477;SDS011;23334;54.316;10.182;2024-01-30T07:03:28;12.93;;;8.00;;
37477;SDS011;23334;54.316;10.182;2024-01-30T07:05:54;12.97;;;8.40;;
37477;SDS011;23334;54.316;10.182;2024-01-30T07:08:19;12.53;;;7.40;;
37477;SDS011;23334;54.316;10.182;2024-01-30T07:10:45;11.67;;;7.43;;
37477;SDS011;23334;54.316;10.182;2024-01-30T07:13:11;8.83;;;7.60;;
37477;SDS011;23334;54.316;10.182;2024-01-30T07:15:37;10.50;;;8.30;;
37477;SDS011;23334;54.316;10.182;2024-01-30T07:18:03;9.40;;;8.00;;
37477;SDS011;23334;54.316;10.182;2024-01-30T07:20:29;12.17;;;7.60;;
37477;SDS011;23334;54.316;10.182;2024-01-30T07:23:00;14.47;;;8.40;;
37477;SDS011;23334;54.316;10.182;2024-01-30T07:25:26;10.37;;;7.53;;
37477;SDS011;23334;54.316;10.182;2024-01-30T07:27:55;11.97;;;8.13;;
37477;SDS011;23334;54.316;10.182;2024-01-30T07:30:21;11.13;;;8.33;;
37477;SDS011;23334;54.316;10.182;2024-01-30T07:32:49;11.07;;;8.40;;
37477;SDS011;23334;54.316;10.182;2024-01-30T07:35:15;16.20;;;9.70;;
37477;SDS011;23334;54.316;10.182;2024-01-30T07:37:40;12.07;;;8.97;;
37477;SDS011;23334;54.316;10.182;2024-01-30T07:40:06;11.97;;;8.30;;
37477;SDS011;23334;54.316;10.182;2024-01-30T07:42:33;12.50;;;8.70;;
37477;SDS011;23334;54.316;10.182;2024-01-30T07:44:59;17.10;;;9.03;;
37477;SDS011;23334;54.316;10.182;2024-01-30T07:47:24;10.60;;;8.20;;
37477;SDS011;23334;54.316;10.182;2024-01-30T07:49:50;13.13;;;8.10;;
37477;SDS011;23334;54.316;10.182;2024-01-30T07:52:17;16.80;;;8.53;;
37477;SDS011;23334;54.316;10.182;2024-01-30T07:54:43;12.70;;;8.80;;
37477;SDS011;23334;54.316;10.182;2024-01-30T07:57:09;12.83;;;8.50;;
37477;SDS011;23334;54.316;10.182;2024-01-30T07:59:34;10.43;;;8.13;;
37477;SDS011;23334;54.316;10.182;2024-01-30T08:02:01;11.37;;;9.10;;
37477;SDS011;23334;54.316;10.182;2024-01-30T08:04:27;13.40;;;9.10;;
37477;SDS011;23334;54.316;10.182;2024-01-30T08:06:52;15.03;;;8.67;;
37477;SDS011;23334;54.316;10.182;2024-01-30T08:09:18;10.47;;;7.90;;
37477;SDS011;23334;54.316;10.182;2024-01-30T08:11:44;16.40;;;8.80;;
37477;SDS011;23334;54.316;10.182;2024-01-30T08:14:10;13.50;;;8.57;;
37477;SDS011;23334;54.316;10.182;2024-01-30T08:16:35;13.13;;;8.47;;
37477;SDS011;23334;54.316;10.182;2024-01-30T08:19:02;9.87;;;8.33;;
37477;SDS011;23334;54.316;10.182;2024-01-30T08:21:28;10.67;;;8.07;;
37477;SDS011;23334;54.316;10.182;2024-01-30T08:23:55;10.67;;;8.37;;
37477;SDS011;23334;54.316;10.182;2024-01-30T08:26:20;10.70;;;8.63;;
37477;SDS011;23334;54.316;10.182;2024-01-30T08:28:46;11.83;;;8.60;;
37477;SDS011;23334;54.316;10.182;2024-01-30T08:31:13;13.97;;;9.43;;
37477;SDS011;23334;54.316;10.182;2024-01-30T08:33:39;14.53;;;8.80;;
37477;SDS011;23334;54.316;10.182;2024-01-30T08:36:05;8.17;;;7.33;;
37477;SDS011;23334;54.316;10.182;2024-01-30T08:38:31;9.73;;;8.33;;
37477;SDS011;23334;54.316;10.182;2024-01-30T08:40:56;11.70;;;8.47;;
37477;SDS011;23334;54.316;10.182;2024-01-30T08:43:22;8.83;;;7.80;;
37477;SDS011;23334;54.316;10.182;2024-01-30T08:45:48;12.83;;;9.10;;
37477;SDS011;23334;54.316;10.182;2024-01-30T08:48:14;11.67;;;7.90;;
37477;SDS011;23334;54.316;10.182;2024-01-30T08:50:39;11.57;;;7.60;;
37477;SDS011;23334;54.316;10.182;2024-01-30T08:53:06;12.30;;;8.10;;
37477;SDS011;23334;54.316;10.182;2024-01-30T08:55:32;11.00;;;8.20;;
37477;SDS011;23334;54.316;10.182;2024-01-30T08:57:57;11.73;;;7.97;;
37477;SDS011;23334;54.316;10.182;2024-01-30T09:00:23;14.93;;;8.03;;
37477;SDS011;23334;54.316;10.182;2024-01-30T09:02:49;10.87;;;7.10;;
37477;SDS011;23334;54.316;10.182;2024-01-30T09:05:16;10.40;;;7.93;;
37477;SDS011;23334;54.316;10.182;2024-01-30T09:07:42;12.40;;;8.13;;
37477;SDS011;23334;54.316;10.182;2024-01-30T09:10:09;11.63;;;8.50;;
37477;SDS011;23334;54.316;10.182;2024-01-30T09:12:35;11.40;;;8.57;;
37477;SDS011;23334;54.316;10.182;2024-01-30T09:15:01;12.70;;;8.07;;
37477;SDS011;23334;54.316;10.182;2024-01-30T09:17:27;10.20;;;7.67;;
37477;SDS011;23334;54.316;10.182;2024-01-30T09:19:53;10.03;;;7.87;;
37477;SDS011;23334;54.316;10.182;2024-01-30T09:22:19;11.73;;;8.27;;
37477;SDS011;23334;54.316;10.182;2024-01-30T09:24:45;11.70;;;7.53;;
37477;SDS011;23334;54.316;10.182;2024-01-30T09:27:12;9.80;;;7.70;;
37477;SDS011;23334;54.316;10.182;2024-01-30T09:29:37;7.50;;;6.70;;
37477;SDS011;23334;54.316;10.182;2024-01-30T09:32:04;11.87;;;8.00;;
37477;SDS011;23334;54.316;10.182;2024-01-30T09:34:31;8.03;;;7.20;;
37477;SDS011;23334;54.316;10.182;2024-01-30T09:36:58;11.10;;;7.70;;
37477;SDS011;23334;54.316;10.182;2024-01-30T09:39:24;9.87;;;8.57;;
37477;SDS011;23334;54.316;10.182;2024-01-30T09:41:57;8.70;;;7.47;;
37477;SDS011;23334;54.316;10.182;2024-01-30T09:44:34;11.43;;;7.63;;
37477;SDS011;23334;54.316;10.182;2024-01-30T09:47:02;9.40;;;7.90;;
37477;SDS011;23334;54.316;10.182;2024-01-30T09:49:33;8.40;;;7.60;;
37477;SDS011;23334;54.316;10.182;2024-01-30T09:52:00;11.37;;;8.20;;
37477;SDS011;23334;54.316;10.182;2024-01-30T09:54:28;14.40;;;8.17;;
37477;SDS011;23334;54.316;10.182;2024-01-30T09:56:56;8.53;;;6.80;;
37477;SDS011;23334;54.316;10.182;2024-01-30T09:59:21;9.40;;;7.93;;
37477;SDS011;23334;54.316;10.182;2024-01-30T10:01:47;11.37;;;8.20;;
37477;SDS011;23334;54.316;10.182;2024-01-30T10:04:14;10.87;;;8.00;;
37477;SDS011;23334;54.316;10.182;2024-01-30T10:06:40;10.27;;;8.40;;
37477;SDS011;23334;54.316;10.182;2024-01-30T10:09:05;9.30;;;8.20;;
37477;SDS011;23334;54.316;10.182;2024-01-30T10:11:31;13.40;;;8.83;;
37477;SDS011;23334;54.316;10.182;2024-01-30T10:13:57;10.60;;;8.17;;
37477;SDS011;23334;54.316;10.182;2024-01-30T10:16:23;12.30;;;7.97;;
37477;SDS011;23334;54.316;10.182;2024-01-30T10:18:50;13.93;;;8.53;;
37477;SDS011;23334;54.316;10.182;2024-01-30T10:21:15;10.57;;;7.50;;
37477;SDS011;23334;54.316;10.182;2024-01-30T10:23:43;9.80;;;7.70;;
37477;SDS011;23334;54.316;10.182;2024-01-30T10:26:09;9.57;;;8.23;;
37477;SDS011;23334;54.316;10.182;2024-01-30T10:28:36;11.93;;;9.20;;
37477;SDS011;23334;54.316;10.182;2024-01-30T10:31:02;10.40;;;7.80;;
37477;SDS011;23334;54.316;10.182;2024-01-30T10:33:30;9.40;;;7.60;;
37477;SDS011;23334;54.316;10.182;2024-01-30T10:35:59;22.40;;;8.47;;
37477;SDS011;23334;54.316;10.182;2024-01-30T10:38:30;10.50;;;7.70;;
37477;SDS011;23334;54.316;10.182;2024-01-30T10:40:57;8.70;;;7.73;;
37477;SDS011;23334;54.316;10.182;2024-01-30T10:43:24;10.23;;;7.70;;
37477;SDS011;23334;54.316;10.182;2024-01-30T10:45:58;10.40;;;7.47;;
37477;SDS011;23334;54.316;10.182;2024-01-30T10:48:33;10.30;;;7.67;;
37477;SDS011;23334;54.316;10.182;2024-01-30T10:51:08;12.60;;;8.03;;
37477;SDS011;23334;54.316;10.182;2024-01-30T10:53:35;11.53;;;7.30;;
37477;SDS011;23334;54.316;10.182;2024-01-30T10:56:02;11.23;;;8.47;;
37477;SDS011;23334;54.316;10.182;2024-01-30T10:58:29;9.07;;;7.40;;
37477;SDS011;23334;54.316;10.182;2024-01-30T11:00:54;10.17;;;7.87;;
37477;SDS011;23334;54.316;10.182;2024-01-30T11:03:21;10.17;;;8.23;;
37477;SDS011;23334;54.316;10.182;2024-01-30T11:05:50;11.67;;;8.47;;
37477;SDS011;23334;54.316;10.182;2024-01-30T11:08:26;12.20;;;8.43;;
37477;SDS011;23334;54.316;10.182;2024-01-30T11:10:56;14.33;;;8.40;;
37477;SDS011;23334;54.316;10.182;2024-01-30T11:13:27;11.33;;;7.87;;
37477;SDS011;23334;54.316;10.182;2024-01-30T11:15:54;10.03;;;8.13;;
37477;SDS011;23334;54.316;10.182;2024-01-30T11:18:23;10.07;;;7.80;;
37477;SDS011;23334;54.316;10.182;2024-01-30T11:20:50;12.10;;;8.87;;
37477;SDS011;23334;54.316;10.182;2024-01-30T11:23:16;12.80;;;7.67;;
37477;SDS011;23334;54.316;10.182;2024-01-30T11:25:43;12.97;;;8.20;;
37477;SDS011;23334;54.316;10.182;2024-01-30T11:28:16;13.47;;;9.00;;
37477;SDS011;23334;54.316;10.182;2024-01-30T11:30:42;8.53;;;7.00;;
37477;SDS011;23334;54.316;10.182;2024-01-30T11:33:09;13.47;;;8.90;;
37477;SDS011;23334;54.316;10.182;2024-01-30T11:35:39;9.33;;;8.33;;
37477;SDS011;23334;54.316;10.182;2024-01-30T11:38:05;10.37;;;8.40;;
37477;SDS011;23334;54.316;10.182;2024-01-30T11:40:33;10.73;;;7.47;;
37477;SDS011;23334;54.316;10.182;2024-01-30T11:43:01;15.03;;;8.87;;
37477;SDS011;23334;54.316;10.182;2024-01-30T11:45:27;12.60;;;8.60;;
37477;SDS011;23334;54.316;10.182;2024-01-30T11:47:53;14.50;;;8.23;;
37477;SDS011;23334;54.316;10.182;2024-01-30T11:50:19;14.13;;;9.67;;
37477;SDS011;23334;54.316;10.182;2024-01-30T11:52:45;11.90;;;8.60;;
37477;SDS011;23334;54.316;10.182;2024-01-30T11:55:12;16.60;;;8.20;;
37477;SDS011;23334;54.316;10.182;2024-01-30T11:57:40;10.47;;;8.30;;
37477;SDS011;23334;54.316;10.182;2024-01-30T12:00:06;9.90;;;8.50;;
37477;SDS011;23334;54.316;10.182;2024-01-30T12:02:39;11.97;;;8.20;;
37477;SDS011;23334;54.316;10.182;2024-01-30T12:05:05;10.60;;;7.80;;
37477;SDS011;23334;54.316;10.182;2024-01-30T12:07:31;14.80;;;9.00;;
37477;SDS011;23334;54.316;10.182;2024-01-30T12:09:57;11.90;;;8.47;;
37477;SDS011;23334;54.316;10.182;2024-01-30T12:12:24;17.30;;;9.37;;
37477;SDS011;23334;54.316;10.182;2024-01-30T12:14:50;12.03;;;8.40;;
37477;SDS011;23334;54.316;10.182;2024-01-30T12:17:23;14.10;;;9.30;;
37477;SDS011;23334;54.316;10.182;2024-01-30T12:20:12;11.40;;;8.57;;
37477;SDS011;23334;54.316;10.182;2024-01-30T12:22:41;10.00;;;8.03;;
37477;SDS011;23334;54.316;10.182;2024-01-30T12:25:11;11.83;;;8.70;;
37477;SDS011;23334;54.316;10.182;2024-01-30T12:27:38;11.50;;;9.03;;
37477;SDS011;23334;54.316;10.182;2024-01-30T12:30:05;15.97;;;9.33;;
37477;SDS011;23334;54.316;10.182;2024-01-30T12:32:40;13.40;;;8.40;;
37477;SDS011;23334;54.316;10.182;2024-01-30T12:35:13;12.90;;;8.50;;
37477;SDS011;23334;54.316;10.182;2024-01-30T12:37:43;11.53;;;8.77;;
37477;SDS011;23334;54.316;10.182;2024-01-30T12:40:10;11.97;;;8.67;;
37477;SDS011;23334;54.316;10.182;2024-01-30T12:42:38;12.40;;;8.67;;
37477;SDS011;23334;54.316;10.182;2024-01-30T12:45:04;9.23;;;8.03;;
37477;SDS011;23334;54.316;10.182;2024-01-30T12:47:30;11.40;;;8.03;;
37477;SDS011;23334;54.316;10.182;2024-01-30T12:49:56;14.23;;;10.37;;
37477;SDS011;23334;54.316;10.182;2024-01-30T12:52:22;18.00;;;8.83;;
37477;SDS011;23334;54.316;10.182;2024-01-30T12:54:48;12.50;;;8.90;;
37477;SDS011;23334;54.316;10.182;2024-01-30T12:57:16;13.93;;;8.83;;
37477;SDS011;23334;54.316;10.182;2024-01-30T12:59:46;12.30;;;9.27;;
37477;SDS011;23334;54.316;10.182;2024-01-30T13:02:12;10.63;;;8.30;;
37477;SDS011;23334;54.316;10.182;2024-01-30T13:04:39;15.50;;;9.03;;
37477;SDS011;23334;54.316;10.182;2024-01-30T13:07:05;11.50;;;9.13;;
37477;SDS011;23334;54.316;10.182;2024-01-30T13:09:31;11.17;;;9.13;;
37477;SDS011;23334;54.316;10.182;2024-01-30T13:11:57;11.00;;;8.43;;
37477;SDS011;23334;54.316;10.182;2024-01-30T13:14:23;10.73;;;8.70;;
37477;SDS011;23334;54.316;10.182;2024-01-30T13:16:49;15.93;;;8.50;;
37477;SDS011;23334;54.316;10.182;2024-01-30T13:19:15;17.57;;;8.53;;
37477;SDS011;23334;54.316;10.182;2024-01-30T13:21:41;13.30;;;9.33;;
37477;SDS011;23334;54.316;10.182;2024-01-30T13:24:07;12.37;;;8.27;;
37477;SDS011;23334;54.316;10.182;2024-01-30T13:26:33;11.33;;;8.50;;
37477;SDS011;23334;54.316;10.182;2024-01-30T13:28:59;13.43;;;10.00;;
37477;SDS011;23334;54.316;10.182;2024-01-30T13:31:25;11.63;;;8.30;;
37477;SDS011;23334;54.316;10.182;2024-01-30T13:33:52;13.40;;;8.70;;
37477;SDS011;23334;54.316;10.182;2024-01-30T13:36:17;11.70;;;8.77;;
37477;SDS011;23334;54.316;10.182;2024-01-30T13:38:44;14.50;;;9.83;;
37477;SDS011;23334;54.316;10.182;2024-01-30T13:41:09;13.43;;;9.20;;
37477;SDS011;23334;54.316;10.182;2024-01-30T13:43:35;13.53;;;8.73;;
37477;SDS011;23334;54.316;10.182;2024-01-30T13:46:01;11.90;;;8.80;;
37477;SDS011;23334;54.316;10.182;2024-01-30T13:48:28;9.97;;;8.47;;
37477;SDS011;23334;54.316;10.182;2024-01-30T13:50:54;12.13;;;8.30;;
37477;SDS011;23334;54.316;10.182;2024-01-30T13:53:20;13.77;;;9.27;;
37477;SDS011;23334;54.316;10.182;2024-01-30T13:55:47;12.63;;;9.20;;
37477;SDS011;23334;54.316;10.182;2024-01-30T13:58:13;11.13;;;8.63;;
37477;SDS011;23334;54.316;10.182;2024-01-30T14:00:39;15.07;;;9.10;;
37477;SDS011;23334;54.316;10.182;2024-01-30T14:03:04;12.17;;;8.83;;
37477;SDS011;23334;54.316;10.182;2024-01-30T14:05:30;13.33;;;9.00;;
37477;SDS011;23334;54.316;10.182;2024-01-30T14:07:56;11.30;;;9.37;;
37477;SDS011;23334;54.316;10.182;2024-01-30T14:10:23;14.70;;;9.60;;
37477;SDS011;23334;54.316;10.182;2024-01-30T14:12:48;12.23;;;9.73;;
37477;SDS011;23334;54.316;10.182;2024-01-30T14:15:14;14.17;;;8.67;;
37477;SDS011;23334;54.316;10.182;2024-01-30T14:17:42;9.30;;;7.83;;